Time;durP1;ratioP1;P1;durP2;ratioP2;P2;SDS_P1;SDS_P2;PMS_P1;PMS_P2;Temp;Humidity;BMP_temperature;BMP_pressure;BME280_temperature;BME280_humidity;BME280_pressure;Samples;Min_cycle;Max_cycle;Signal;HPM_P1;HPM_P2
2022/08/05 00:00:47;;;;;;;15.13;7.87;;;;;;;;;;4986846;28;20280;-70
2022/08/05 00:03:14;;;;;;;13.17;7.03;;;;;;;;;;4992605;28;20420;-69
2022/08/05 00:05:42;;;;;;;12.60;6.97;;;28.40;27.10;;;;;;4988360;28;20782;-70
2022/08/05 00:08:08;;;;;;;20.40;7.00;;;;;;;;;;4992547;28;20479;-70
2022/08/05 00:10:34;;;;;;;12.90;7.50;;;;;;;;;;4992501;28;20896;-70
2022/08/05 00:13:00;;;;;;;14.97;7.30;;;;;;;;;;4991733;28;20432;-69
2022/08/05 00:15:26;;;;;;;11.83;6.97;;;;;;;;;;4990809;28;20457;-70
2022/08/05 00:17:51;;;;;;;12.83;7.40;;;28.00;27.50;;;;;;4992350;28;20516;-71
2022/08/05 00:20:17;;;;;;;17.93;7.60;;;28.30;28.00;;;;;;4984635;28;20425;-70
2022/08/05 00:22:43;;;;;;;11.70;6.93;;;28.10;29.30;;;;;;4991628;28;20202;-70
2022/08/05 00:25:08;;;;;;;15.00;7.50;;;28.20;28.50;;;;;;4990626;28;20186;-70
2022/08/05 00:27:34;;;;;;;16.00;8.13;;;;;;;;;;4992143;28;20208;-70
2022/08/05 00:30:00;;;;;;;18.20;9.03;;;27.70;29.10;;;;;;4991944;28;20577;-70
2022/08/05 00:32:26;;;;;;;17.67;8.30;;;27.90;29.40;;;;;;4991653;28;20451;-70
2022/08/05 00:34:51;;;;;;;16.73;8.30;;;27.80;29.00;;;;;;4992230;28;20297;-70
2022/08/05 00:37:17;;;;;;;16.10;8.43;;;27.80;29.70;;;;;;4991064;28;20221;-70
2022/08/05 00:39:42;;;;;;;13.00;7.97;;;27.70;30.60;;;;;;4992160;28;20198;-70
2022/08/05 00:42:08;;;;;;;14.43;8.10;;;;;;;;;;4991663;28;20205;-69
2022/08/05 00:44:34;;;;;;;21.20;9.00;;;;;;;;;;4985153;28;20188;-69
2022/08/05 00:47:00;;;;;;;12.07;7.70;;;;;;;;;;4987426;28;20436;-69
2022/08/05 00:49:26;;;;;;;16.87;8.07;;;27.50;30.40;;;;;;4991217;28;20413;-70
2022/08/05 00:51:51;;;;;;;16.37;8.73;;;27.50;32.10;;;;;;4991139;28;20495;-70
2022/08/05 00:54:17;;;;;;;13.80;8.03;;;27.40;29.80;;;;;;4974162;28;20256;-70
2022/08/05 00:56:43;;;;;;;22.53;9.07;;;27.00;30.10;;;;;;4990474;28;20196;-70
2022/08/05 00:59:09;;;;;;;16.90;8.67;;;;;;;;;;4991967;28;20256;-69
2022/08/05 01:01:35;;;;;;;12.70;7.80;;;;;;;;;;4990880;28;20225;-70
2022/08/05 01:04:01;;;;;;;13.87;7.90;;;;;;;;;;4982906;28;20526;-70
2022/08/05 01:06:27;;;;;;;15.43;8.77;;;;;;;;;;4990701;28;20424;-70
2022/08/05 01:08:53;;;;;;;24.63;8.80;;;;;;;;;;5020193;23;20505;-73
2022/08/05 01:11:23;;;;;;;20.33;8.77;;;27.50;30.30;;;;;;4993326;28;20420;-73
2022/08/05 01:14:13;;;;;;;18.13;7.50;;;27.40;31.00;;;;;;4999948;28;20450;-72
2022/08/05 01:16:42;;;;;;;16.53;7.60;;;27.30;32.40;;;;;;4998781;28;20486;-71
2022/08/05 01:19:31;;;;;;;24.70;9.17;;;27.30;30.30;;;;;;4973601;28;20448;-72
2022/08/05 01:22:25;;;;;;;23.13;8.33;;;27.30;30.80;;;;;;4990738;28;20436;-71
2022/08/05 01:25:09;;;;;;;19.37;7.93;;;;;;;;;;4990465;28;20790;-72
2022/08/05 01:27:38;;;;;;;20.43;8.37;;;;;;;;;;4983799;28;20474;-71
2022/08/05 01:30:05;;;;;;;21.60;7.87;;;27.30;30.20;;;;;;4991155;28;21005;-73
2022/08/05 01:32:34;;;;;;;19.90;7.93;;;27.10;31.60;;;;;;4983072;28;20483;-72
2022/08/05 01:35:08;;;;;;;18.27;8.00;;;;;;;;;;4986284;28;20440;-71
2022/08/05 01:37:37;;;;;;;13.40;7.53;;;;;;;;;;4981421;28;20516;-72
2022/08/05 01:40:05;;;;;;;38.67;9.00;;;25.10;33.20;;;;;;4989678;28;20927;-72
2022/08/05 01:42:33;;;;;;;16.60;7.50;;;25.20;31.50;;;;;;4990796;28;20432;-72
2022/08/05 01:45:00;;;;;;;18.60;7.90;;;25.40;31.70;;;;;;4985263;28;20440;-72
2022/08/05 01:47:28;;;;;;;15.03;7.10;;;26.00;29.60;;;;;;4980908;28;20503;-72
2022/08/05 01:49:56;;;;;;;15.80;7.40;;;;;;;;;;4989780;28;21001;-72
2022/08/05 01:52:22;;;;;;;14.43;7.60;;;;;;;;;;4990840;28;20423;-72
2022/08/05 01:54:50;;;;;;;13.60;7.27;;;;;;;;;;4989745;28;20435;-72
2022/08/05 01:57:23;;;;;;;14.03;7.13;;;27.20;28.00;;;;;;4991274;28;20487;-72
2022/08/05 01:59:50;;;;;;;17.10;7.57;;;;;;;;;;4985558;28;20460;-72
2022/08/05 02:02:18;;;;;;;17.77;7.40;;;27.40;28.20;;;;;;4985833;28;20437;-72
2022/08/05 02:04:44;;;;;;;14.67;7.50;;;;;;;;;;4989464;28;20448;-72
2022/08/05 02:07:10;;;;;;;14.23;7.43;;;;;;;;;;4994674;28;20519;-72
2022/08/05 02:09:36;;;;;;;15.90;7.23;;;;;;;;;;4993911;28;20495;-72
2022/08/05 02:12:32;;;;;;;19.23;8.60;;;27.50;28.40;;;;;;4988278;28;20444;-72
2022/08/05 02:15:18;;;;;;;14.93;7.63;;;;;;;;;;4994361;28;20513;-72
2022/08/05 02:17:51;;;;;;;20.30;7.30;;;27.60;28.10;;;;;;4980185;28;20538;-72
2022/08/05 02:20:21;;;;;;;23.37;7.70;;;27.70;27.10;;;;;;4993286;28;20463;-71
2022/08/05 02:22:54;;;;;;;21.73;7.30;;;27.50;28.90;;;;;;4993949;28;20428;-72
2022/08/05 02:25:33;;;;;;;26.43;7.87;;;27.40;27.40;;;;;;4992215;28;20512;-73
2022/08/05 02:27:59;;;;;;;19.67;7.07;;;;;;;;;;4992327;28;20596;-71
2022/08/05 02:30:27;;;;;;;14.63;7.00;;;;;;;;;;4992690;28;20850;-72
2022/08/05 02:32:56;;;;;;;16.40;7.50;;;27.50;27.90;;;;;;4993043;28;20523;-72
2022/08/05 02:35:25;;;;;;;22.50;7.47;;;27.60;26.50;;;;;;4993414;28;20441;-72
2022/08/05 02:37:53;;;;;;;13.93;7.47;;;;;;;;;;4992930;28;20544;-72
2022/08/05 02:40:20;;;;;;;15.00;7.20;;;27.30;27.50;;;;;;4993351;28;20437;-72
2022/08/05 02:42:47;;;;;;;12.20;6.50;;;;;;;;;;4992782;28;20447;-73
2022/08/05 02:45:15;;;;;;;17.17;7.30;;;27.90;26.00;;;;;;4992817;28;20880;-72
2022/08/05 02:47:42;;;;;;;17.90;7.50;;;;;;;;;;4993959;28;20472;-72
2022/08/05 02:50:09;;;;;;;20.07;7.87;;;;;;;;;;4991162;28;20433;-71
2022/08/05 02:52:35;;;;;;;14.13;7.03;;;;;;;;;;4983699;28;20570;-72
2022/08/05 02:55:02;;;;;;;18.23;7.63;;;;;;;;;;4982069;28;20859;-73
2022/08/05 02:57:29;;;;;;;15.00;7.40;;;27.50;28.90;;;;;;4984659;28;20581;-72
2022/08/05 02:59:55;;;;;;;19.50;7.30;;;27.40;28.20;;;;;;4984085;28;20812;-72
2022/08/05 03:02:23;;;;;;;18.70;6.80;;;;;;;;;;4984669;28;20517;-72
2022/08/05 03:04:52;;;;;;;18.13;7.20;;;27.70;27.90;;;;;;4992589;28;20432;-72
2022/08/05 03:07:18;;;;;;;12.03;6.83;;;27.40;29.80;;;;;;4993314;28;20432;-72
2022/08/05 03:09:44;;;;;;;13.13;7.13;;;;;;;;;;4983370;28;20481;-72
2022/08/05 03:12:28;;;;;;;15.83;6.83;;;;;;;;;;4991727;28;20575;-71
2022/08/05 03:14:54;;;;;;;17.10;6.90;;;;;;;;;;4985167;28;20483;-73
2022/08/05 03:17:21;;;;;;;17.37;6.93;;;27.30;30.30;;;;;;4981576;28;20467;-72
2022/08/05 03:19:46;;;;;;;12.40;6.67;;;27.20;29.10;;;;;;4991518;28;20480;-72
2022/08/05 03:22:13;;;;;;;17.53;7.30;;;;;;;;;;4991527;28;20193;-71
2022/08/05 03:24:40;;;;;;;27.33;8.37;;;27.30;29.60;;;;;;4991450;28;20185;-72
2022/08/05 03:27:06;;;;;;;20.20;7.77;;;27.00;30.00;;;;;;4987060;28;20639;-72
2022/08/05 03:29:32;;;;;;;15.13;7.00;;;27.00;30.10;;;;;;4992910;28;20516;-72
2022/08/05 03:31:57;;;;;;;18.37;8.00;;;27.00;30.10;;;;;;4991753;28;20436;-72
2022/08/05 03:34:24;;;;;;;15.17;7.10;;;27.00;30.70;;;;;;4992900;28;20181;-72
2022/08/05 03:36:49;;;;;;;15.03;7.17;;;27.00;32.20;;;;;;4986735;28;20187;-72
2022/08/05 03:39:15;;;;;;;17.97;7.10;;;26.90;32.30;;;;;;4986630;28;20511;-73
2022/08/05 03:41:41;;;;;;;14.23;8.03;;;;;;;;;;4990409;28;20265;-72
2022/08/05 03:44:07;;;;;;;19.63;7.30;;;;;;;;;;4990485;28;20277;-71
2022/08/05 03:46:33;;;;;;;16.57;6.60;;;;;;;;;;4992926;28;20436;-71
2022/08/05 03:48:59;;;;;;;16.83;7.50;;;;;;;;;;4992213;28;20489;-72
2022/08/05 03:51:31;;;;;;;13.37;7.03;;;26.90;31.50;;;;;;4986268;28;20456;-72
2022/08/05 03:53:59;;;;;;;20.53;7.43;;;;;;;;;;4991819;28;20429;-72
2022/08/05 03:56:31;;;;;;;20.67;7.83;;;;;;;;;;4992447;28;20927;-72
2022/08/05 03:59:00;;;;;;;13.43;6.60;;;27.30;29.80;;;;;;4992636;28;20441;-72
2022/08/05 04:01:30;;;;;;;19.80;7.63;;;27.00;30.10;;;;;;4992246;28;20490;-72
2022/08/05 04:03:57;;;;;;;18.83;7.90;;;;;;;;;;4989533;28;20476;-72
2022/08/05 04:06:23;;;;;;;22.60;7.23;;;;;;;;;;4991326;28;20511;-72
2022/08/05 04:08:49;;;;;;;15.03;6.67;;;;;;;;;;4989575;28;20476;-72
2022/08/05 04:11:16;;;;;;;16.77;7.33;;;;;;;;;;4989756;28;20431;-72
2022/08/05 04:13:42;;;;;;;24.80;7.43;;;;;;;;;;4992182;28;20452;-71
2022/08/05 04:16:08;;;;;;;23.10;7.20;;;;;;;;;;4992002;28;20424;-72
2022/08/05 04:18:35;;;;;;;17.37;7.20;;;26.60;31.20;;;;;;4991075;28;20515;-72
2022/08/05 04:21:02;;;;;;;24.20;8.70;;;26.80;30.80;;;;;;4991644;28;20519;-72
2022/08/05 04:23:28;;;;;;;16.00;7.10;;;26.70;30.40;;;;;;4989333;28;20448;-72
2022/08/05 04:25:54;;;;;;;17.33;7.33;;;;;;;;;;4991777;28;20796;-71
2022/08/05 04:28:20;;;;;;;20.37;7.50;;;26.90;31.40;;;;;;4990903;28;20715;-72
2022/08/05 04:30:46;;;;;;;21.57;7.97;;;26.80;31.00;;;;;;4991736;28;20519;-72
2022/08/05 04:33:13;;;;;;;17.93;7.70;;;26.50;31.30;;;;;;4987519;28;20181;-72
2022/08/05 04:35:40;;;;;;;10.50;7.17;;;26.30;32.60;;;;;;4992049;28;20433;-73
2022/08/05 04:38:05;;;;;;;18.13;8.03;;;26.20;33.30;;;;;;4991183;28;20968;-72
2022/08/05 04:40:38;;;;;;;15.93;7.03;;;26.10;33.40;;;;;;4988311;28;20448;-72
2022/08/05 04:43:04;;;;;;;15.57;7.40;;;;;;;;;;4990477;28;20204;-71
2022/08/05 04:45:30;;;;;;;15.97;7.10;;;;;;;;;;4991634;28;20425;-71
2022/08/05 04:48:06;;;;;;;14.33;7.10;;;26.20;32.70;;;;;;4990739;28;20472;-72
2022/08/05 04:50:37;;;;;;;20.10;7.40;;;26.20;33.30;;;;;;4987140;28;20975;-72
2022/08/05 04:53:02;;;;;;;14.87;7.00;;;26.20;32.40;;;;;;4989980;28;20465;-72
2022/08/05 04:55:28;;;;;;;16.63;7.47;;;;;;;;;;4984641;28;20844;-72
2022/08/05 04:57:54;;;;;;;17.30;7.23;;;;;;;;;;4988881;28;20202;-73
2022/08/05 05:00:21;;;;;;;20.90;8.23;;;;;;;;;;4984964;28;20920;-73
2022/08/05 05:02:47;;;;;;;40.73;8.23;;;;;;;;;;4987890;28;20448;-72
2022/08/05 05:05:13;;;;;;;28.03;8.60;;;;;;;;;;4985595;28;20448;-72
2022/08/05 05:07:39;;;;;;;26.30;8.90;;;;;;;;;;4990938;28;20543;-72
2022/08/05 05:10:05;;;;;;;29.17;8.53;;;;;;;;;;4991199;28;20535;-73
2022/08/05 05:12:31;;;;;;;22.80;8.97;;;;;;;;;;4990759;28;20424;-72
2022/08/05 05:14:57;;;;;;;24.60;8.90;;;;;;;;;;4989825;28;20424;-72
2022/08/05 05:17:23;;;;;;;22.63;8.27;;;;;;;;;;4990362;28;20615;-71
2022/08/05 05:19:49;;;;;;;24.50;8.47;;;;;;;;;;4989613;28;20935;-71
2022/08/05 05:22:15;;;;;;;24.00;7.37;;;;;;;;;;4990999;28;20420;-71
2022/08/05 05:24:41;;;;;;;26.63;9.87;;;23.80;37.20;;;;;;4988456;28;20432;-73
2022/08/05 05:27:07;;;;;;;26.13;8.93;;;;;;;;;;4979920;28;20981;-70
2022/08/05 05:29:33;;;;;;;25.27;8.53;;;;;;;;;;4986528;28;20716;-72
2022/08/05 05:31:59;;;;;;;56.70;13.60;;;;;;;;;;4984861;28;20432;-72
2022/08/05 05:34:25;;;;;;;29.40;9.87;;;24.30;34.60;;;;;;4984531;28;20425;-72
2022/08/05 05:36:51;;;;;;;19.33;9.70;;;24.80;32.70;;;;;;4982965;28;20428;-72
2022/08/05 05:39:16;;;;;;;29.27;8.17;;;24.90;32.20;;;;;;4987535;28;20520;-72
2022/08/05 05:41:42;;;;;;;16.33;8.20;;;25.40;33.00;;;;;;4989255;28;20185;-72
2022/08/05 05:44:08;;;;;;;18.47;8.03;;;;;;;;;;4994688;28;20210;-72
2022/08/05 05:46:34;;;;;;;23.47;7.33;;;;;;;;;;4994393;28;20547;-71
2022/08/05 05:49:00;;;;;;;20.83;7.57;;;;;;;;;;4994081;28;20468;-71
2022/08/05 05:51:26;;;;;;;14.23;7.47;;;;;;;;;;4993618;28;20467;-72
2022/08/05 05:53:53;;;;;;;26.53;7.80;;;;;;;;;;4992429;28;20420;-72
2022/08/05 05:56:19;;;;;;;17.73;7.60;;;27.00;27.90;;;;;;4994047;28;20428;-72
2022/08/05 05:58:48;;;;;;;14.30;7.40;;;;;;;;;;4993886;28;20444;-72
2022/08/05 06:01:14;;;;;;;16.87;8.00;;;;;;;;;;4990211;28;20705;-72
2022/08/05 06:03:41;;;;;;;24.37;9.60;;;;;;;;;;4989869;28;20872;-72
2022/08/05 06:06:07;;;;;;;29.73;10.03;;;27.00;31.70;;;;;;4990991;28;20425;-72
2022/08/05 06:08:33;;;;;;;32.67;10.97;;;;;;;;;;4988200;28;20918;-70
2022/08/05 06:10:59;;;;;;;30.40;10.23;;;;;;;;;;4979362;28;20645;-71
2022/08/05 06:13:25;;;;;;;33.03;8.87;;;;;;;;;;4992190;28;20429;-71
2022/08/05 06:15:51;;;;;;;17.07;7.60;;;;;;;;;;4991960;28;20424;-70
2022/08/05 06:18:17;;;;;;;19.30;7.57;;;;;;;;;;4984320;28;20452;-72
2022/08/05 06:20:43;;;;;;;26.40;7.80;;;;;;;;;;4992352;28;20433;-70
2022/08/05 06:23:09;;;;;;;30.20;10.13;;;;;;;;;;4987882;28;20441;-72
2022/08/05 06:25:35;;;;;;;16.93;8.03;;;;;;;;;;4991845;28;20436;-72
2022/08/05 06:28:01;;;;;;;26.57;10.77;;;;;;;;;;4990817;28;21174;-72
2022/08/05 06:30:26;;;;;;;32.60;11.73;;;27.10;27.50;;;;;;4984741;28;20428;-72
2022/08/05 06:32:52;;;;;;;20.70;8.20;;;26.90;28.10;;;;;;4971777;28;20447;-72
2022/08/05 06:35:19;;;;;;;33.07;9.23;;;;;;;;;;4980627;28;22000;-72
2022/08/05 06:37:45;;;;;;;24.27;7.60;;;;;;;;;;4987935;28;20433;-72
2022/08/05 06:40:12;;;;;;;39.00;11.83;;;;;;;;;;4981199;28;20443;-72
2022/08/05 06:42:37;;;;;;;28.97;8.23;;;27.00;29.00;;;;;;4984771;28;20919;-72
2022/08/05 06:45:04;;;;;;;23.73;8.00;;;;;;;;;;4984003;28;20529;-71
2022/08/05 06:47:30;;;;;;;30.17;7.80;;;27.10;30.00;;;;;;4988148;28;20691;-72
2022/08/05 06:49:56;;;;;;;17.70;8.37;;;;;;;;;;4988727;28;20437;-73
2022/08/05 06:52:22;;;;;;;19.43;8.77;;;28.20;28.30;;;;;;4986086;28;20181;-72
2022/08/05 06:54:48;;;;;;;23.07;8.70;;;;;;;;;;4988660;28;20437;-72
2022/08/05 06:57:16;;;;;;;24.30;8.80;;;;;;;;;;4990833;28;20664;-72
2022/08/05 06:59:42;;;;;;;27.00;8.50;;;27.80;29.40;;;;;;4993948;28;20802;-72
2022/08/05 07:02:08;;;;;;;21.97;9.30;;;27.90;29.10;;;;;;4980775;28;20429;-72
2022/08/05 07:04:34;;;;;;;16.20;7.87;;;;;;;;;;4993184;28;20413;-72
2022/08/05 07:07:00;;;;;;;31.87;9.17;;;;;;;;;;4986213;28;20185;-72
2022/08/05 07:09:26;;;;;;;18.77;7.57;;;;;;;;;;4991132;28;20836;-72
2022/08/05 07:11:54;;;;;;;42.70;10.87;;;27.30;29.90;;;;;;5006898;23;20421;-68
2022/08/05 07:17:04;;;;;;;21.03;7.73;;;27.10;30.20;;;;;;4992567;28;20455;-69
2022/08/05 07:19:30;;;;;;;19.97;7.90;;;27.10;30.80;;;;;;4993107;28;20536;-69
2022/08/05 07:21:56;;;;;;;15.33;8.07;;;27.40;29.10;;;;;;4985245;28;20190;-69
2022/08/05 07:24:22;;;;;;;19.83;7.70;;;27.10;30.20;;;;;;4973372;28;20170;-69
2022/08/05 07:26:47;;;;;;;13.97;7.90;;;27.00;30.70;;;;;;4974728;28;20201;-69
2022/08/05 07:29:14;;;;;;;27.53;8.57;;;27.20;30.00;;;;;;4972896;28;20233;-69
2022/08/05 07:31:40;;;;;;;18.00;7.93;;;27.20;30.30;;;;;;4973298;28;20260;-69
2022/08/05 07:34:05;;;;;;;16.13;8.00;;;27.50;29.90;;;;;;4970663;28;20485;-69
2022/08/05 07:36:32;;;;;;;13.70;7.67;;;27.60;30.60;;;;;;4973258;28;20438;-69
2022/08/05 07:39:05;;;;;;;15.67;7.57;;;27.20;30.90;;;;;;4970125;28;20192;-69
2022/08/05 07:41:31;;;;;;;22.47;8.07;;;27.60;29.70;;;;;;4970442;28;20961;-69
2022/08/05 07:43:58;;;;;;;21.67;8.20;;;27.10;30.20;;;;;;4973312;28;20803;-69
2022/08/05 07:46:27;;;;;;;14.33;7.00;;;27.10;30.80;;;;;;4974179;28;20772;-69
2022/08/05 07:48:57;;;;;;;14.70;6.90;;;27.50;28.30;;;;;;4971037;28;20473;-69
2022/08/05 07:51:23;;;;;;;10.37;5.63;;;27.50;29.00;;;;;;4969266;28;20566;-68
2022/08/05 07:53:49;;;;;;;12.43;5.90;;;28.10;27.00;;;;;;4963490;28;20485;-69
2022/08/05 07:56:14;;;;;;;14.23;5.40;;;28.30;25.60;;;;;;4971677;28;20174;-69
2022/08/05 07:58:40;;;;;;;15.47;5.70;;;28.30;26.10;;;;;;4970584;28;20472;-68
2022/08/05 08:01:06;;;;;;;23.13;5.83;;;28.00;26.20;;;;;;4968179;28;20205;-69
2022/08/05 08:03:32;;;;;;;7.20;5.17;;;27.90;27.10;;;;;;4971205;28;20198;-68
2022/08/05 08:05:58;;;;;;;13.23;5.90;;;;;;;;;;4972438;28;20657;-68
2022/08/05 08:08:23;;;;;;;11.53;5.67;;;27.40;26.60;;;;;;4973075;28;20202;-68
2022/08/05 08:10:49;;;;;;;20.27;6.70;;;27.40;27.10;;;;;;4970442;28;20500;-69
2022/08/05 08:13:15;;;;;;;11.77;6.40;;;28.00;25.90;;;;;;4970048;28;21469;-69
2022/08/05 08:15:40;;;;;;;10.60;5.20;;;28.10;26.00;;;;;;4976124;28;20192;-69
2022/08/05 08:18:06;;;;;;;7.03;4.53;;;28.10;25.80;;;;;;4973398;28;20185;-69
2022/08/05 08:20:32;;;;;;;17.93;5.30;;;27.40;25.30;;;;;;4975516;28;20193;-68
2022/08/05 08:22:59;;;;;;;10.90;5.20;;;27.50;25.80;;;;;;4969306;28;20205;-68
2022/08/05 08:25:27;;;;;;;11.07;5.57;;;27.80;25.30;;;;;;4965951;28;20666;-68
2022/08/05 08:27:53;;;;;;;16.23;5.17;;;27.90;25.60;;;;;;4971598;28;20461;-68
2022/08/05 08:30:19;;;;;;;11.40;6.40;;;27.90;25.10;;;;;;4970969;28;20422;-68
2022/08/05 08:32:44;;;;;;;9.23;5.10;;;27.90;26.00;;;;;;4973421;28;20449;-68
2022/08/05 08:35:11;;;;;;;16.60;6.13;;;28.10;25.70;;;;;;4969513;28;20182;-67
2022/08/05 08:37:36;;;;;;;10.37;5.50;;;28.20;26.10;;;;;;4965604;28;20190;-68
2022/08/05 08:40:03;;;;;;;10.40;5.20;;;29.20;24.10;;;;;;4971869;28;20452;-68
2022/08/05 08:42:29;;;;;;;11.83;6.73;;;29.50;25.20;;;;;;4963432;28;20194;-72
2022/08/05 08:44:57;;;;;;;22.90;6.03;;;28.80;24.10;;;;;;4970444;28;20925;-70
2022/08/05 08:47:26;;;;;;;12.60;5.43;;;28.90;24.70;;;;;;4969248;28;20504;-68
2022/08/05 08:49:54;;;;;;;13.93;5.23;;;29.30;24.40;;;;;;4959560;28;20438;-69
2022/08/05 08:52:32;;;;;;;17.53;6.20;;;30.00;24.70;;;;;;4969958;28;20453;-68
2022/08/05 08:54:58;;;;;;;14.90;5.57;;;30.10;22.90;;;;;;4970216;28;20422;-69
2022/08/05 08:57:24;;;;;;;13.67;5.60;;;30.30;23.10;;;;;;4972279;28;20418;-68
2022/08/05 08:59:50;;;;;;;9.77;6.57;;;30.60;23.30;;;;;;4958210;28;20183;-68
2022/08/05 09:02:19;;;;;;;10.40;5.37;;;30.90;23.00;;;;;;4971112;28;20449;-69
2022/08/05 09:04:45;;;;;;;10.07;5.30;;;31.10;22.60;;;;;;4969871;28;20445;-68
2022/08/05 09:07:12;;;;;;;8.93;5.20;;;31.30;22.20;;;;;;4971217;28;20441;-68
2022/08/05 09:09:38;;;;;;;12.60;5.40;;;31.40;21.50;;;;;;4970421;28;20798;-69
2022/08/05 09:12:06;;;;;;;11.93;6.70;;;31.40;21.90;;;;;;4969902;28;20533;-69
2022/08/05 09:14:33;;;;;;;16.97;5.33;;;31.30;22.10;;;;;;4969483;28;20516;-69
2022/08/05 09:16:59;;;;;;;9.03;5.37;;;31.40;22.10;;;;;;4975349;28;20970;-69
2022/08/05 09:19:25;;;;;;;10.60;5.73;;;31.60;20.60;;;;;;4974829;28;20524;-69
2022/08/05 09:21:51;;;;;;;8.97;4.80;;;31.50;21.30;;;;;;4973306;28;20453;-69
2022/08/05 09:24:16;;;;;;;11.67;5.57;;;31.50;22.10;;;;;;4986248;28;20569;-68
2022/08/05 09:26:47;;;;;;;9.37;5.00;;;31.40;21.20;;;;;;4976139;28;20184;-67
2022/08/05 09:29:13;;;;;;;7.07;4.80;;;31.40;20.40;;;;;;4976366;28;20572;-69
2022/08/05 09:31:42;;;;;;;30.03;5.77;;;31.50;21.50;;;;;;4976785;28;20410;-69
2022/08/05 09:34:08;;;;;;;8.70;4.70;;;31.60;21.20;;;;;;4977036;28;20418;-68
2022/08/05 09:36:43;;;;;;;7.63;4.47;;;31.80;19.90;;;;;;4976885;28;20437;-68
2022/08/05 09:39:12;;;;;;;7.77;4.80;;;31.50;20.20;;;;;;4975268;28;20438;-69
2022/08/05 09:42:02;;;;;;;8.70;4.70;;;31.30;21.20;;;;;;4977200;28;20471;-69
2022/08/05 09:44:40;;;;;;;10.33;4.87;;;31.10;21.70;;;;;;4973676;28;20797;-68
2022/08/05 09:47:26;;;;;;;11.63;4.80;;;31.60;19.70;;;;;;4975431;28;20952;-68
2022/08/05 09:49:56;;;;;;;9.00;4.40;;;31.80;19.80;;;;;;4975738;28;20442;-68
2022/08/05 09:52:27;;;;;;;6.67;4.13;;;31.80;18.90;;;;;;4976832;28;20805;-69
2022/08/05 09:55:01;;;;;;;6.80;4.20;;;31.70;18.30;;;;;;4976059;28;20504;-69
2022/08/05 09:57:34;;;;;;;5.30;3.80;;;31.70;19.20;;;;;;4978208;28;20531;-69
2022/08/05 10:00:07;;;;;;;12.23;5.50;;;31.80;18.90;;;;;;4974992;28;20563;-71
2022/08/05 10:02:39;;;;;;;11.50;6.00;;;32.00;19.70;;;;;;4973086;28;20453;-69
2022/08/05 10:05:19;;;;;;;5.87;4.20;;;31.80;20.00;;;;;;4974921;28;20421;-69
2022/08/05 10:07:58;;;;;;;7.43;4.60;;;32.00;19.50;;;;;;4976919;28;20465;-68
2022/08/05 10:10:30;;;;;;;9.77;4.83;;;31.80;19.40;;;;;;4977134;28;20963;-69
2022/08/05 10:12:58;;;;;;;5.80;4.30;;;32.10;20.00;;;;;;4971215;28;20484;-69
2022/08/05 10:15:25;;;;;;;8.33;4.70;;;32.60;19.30;;;;;;4977450;28;20512;-69
2022/08/05 10:18:05;;;;;;;11.23;4.40;;;32.30;18.50;;;;;;4976888;28;20434;-68
2022/08/05 10:20:33;;;;;;;19.33;5.00;;;31.70;19.50;;;;;;4977060;28;20438;-68
2022/08/05 10:23:00;;;;;;;8.83;4.60;;;32.10;20.50;;;;;;4976294;28;20453;-68
2022/08/05 10:25:26;;;;;;;7.90;4.40;;;31.90;19.00;;;;;;4962378;28;20424;-68
2022/08/05 10:27:52;;;;;;;7.53;4.90;;;31.90;19.30;;;;;;4975367;28;21051;-68
2022/08/05 10:30:19;;;;;;;7.20;4.33;;;32.20;19.40;;;;;;4974465;28;20835;-68
2022/08/05 10:32:46;;;;;;;9.13;4.63;;;32.70;18.70;;;;;;4973724;28;20442;-69
2022/08/05 10:35:13;;;;;;;9.00;4.70;;;32.50;17.90;;;;;;4948659;28;20427;-69
2022/08/05 10:37:40;;;;;;;13.43;4.60;;;32.70;18.60;;;;;;4974163;28;20455;-68
2022/08/05 10:40:14;;;;;;;15.93;4.67;;;31.70;19.00;;;;;;4974233;28;20488;-68
2022/08/05 10:42:43;;;;;;;9.03;4.60;;;31.20;19.20;;;;;;4973916;28;20523;-69
2022/08/05 10:45:12;;;;;;;12.53;4.97;;;31.90;20.30;;;;;;4973242;28;20821;-69
2022/08/05 10:47:43;;;;;;;8.30;5.20;;;31.70;19.60;;;;;;4971082;28;20477;-69
2022/08/05 10:50:14;;;;;;;8.90;4.83;;;31.90;21.30;;;;;;4973494;28;20422;-69
2022/08/05 10:52:46;;;;;;;11.03;4.50;;;31.80;18.30;;;;;;4974365;28;20818;-69
2022/08/05 10:55:12;;;;;;;14.60;5.00;;;31.80;18.80;;;;;;4974668;28;20437;-69
2022/08/05 10:57:43;;;;;;;11.23;5.23;;;31.70;18.10;;;;;;4974694;28;20425;-69
2022/08/05 11:00:22;;;;;;;6.73;4.37;;;31.90;20.60;;;;;;4974627;28;20508;-69
2022/08/05 11:03:06;;;;;;;9.43;5.03;;;32.60;18.80;;;;;;4965519;28;20511;-68
2022/08/05 11:05:33;;;;;;;10.30;4.73;;;32.00;18.30;;;;;;4975473;28;20794;-69
2022/08/05 11:08:07;;;;;;;10.73;4.60;;;32.50;19.40;;;;;;4975099;28;20820;-69
2022/08/05 11:10:36;;;;;;;7.00;4.60;;;33.00;19.30;;;;;;4973590;28;20434;-69
2022/08/05 11:13:04;;;;;;;6.97;4.87;;;33.00;17.70;;;;;;4972806;28;20508;-69
2022/08/05 11:15:42;;;;;;;12.37;4.50;;;33.60;17.40;;;;;;4973649;28;20434;-68
2022/08/05 11:18:21;;;;;;;12.97;4.20;;;33.00;16.90;;;;;;4974446;28;20409;-69
2022/08/05 11:20:50;;;;;;;7.47;4.60;;;32.30;18.10;;;;;;4967463;28;20461;-68
2022/08/05 11:23:27;;;;;;;6.37;4.27;;;32.70;18.30;;;;;;4973486;28;20476;-69
2022/08/05 11:26:15;;;;;;;11.70;4.63;;;33.30;18.60;;;;;;4968113;28;20793;-68
2022/08/05 11:28:43;;;;;;;7.63;3.83;;;33.30;17.50;;;;;;4974186;28;20449;-69
2022/08/05 11:31:09;;;;;;;7.83;4.20;;;33.30;16.60;;;;;;4973320;28;20425;-69
2022/08/05 11:33:51;;;;;;;11.23;4.33;;;33.70;18.20;;;;;;4973231;28;20501;-69
2022/08/05 11:36:37;;;;;;;9.83;4.20;;;34.40;15.60;;;;;;4973477;28;20229;-69
2022/08/05 11:39:04;;;;;;;7.17;4.00;;;35.00;16.80;;;;;;4971058;28;20421;-69
2022/08/05 11:41:30;;;;;;;5.73;4.10;;;35.40;14.60;;;;;;4973050;28;20496;-69
2022/08/05 11:44:06;;;;;;;7.87;3.80;;;35.90;13.90;;;;;;4972800;28;20827;-69
2022/08/05 11:46:37;;;;;;;10.70;3.90;;;36.50;15.00;;;;;;4972850;28;20447;-70
2022/08/05 11:49:04;;;;;;;9.37;4.10;;;36.70;11.50;;;;;;4970986;28;21055;-69
2022/08/05 11:51:31;;;;;;;4.60;3.67;;;35.90;14.70;;;;;;4972075;28;20952;-69
2022/08/05 11:53:57;;;;;;;7.73;4.20;;;37.00;15.00;;;;;;4973701;28;20476;-70
2022/08/05 11:56:23;;;;;;;7.00;3.87;;;37.80;11.90;;;;;;4973151;28;20461;-69
2022/08/05 11:58:49;;;;;;;8.73;3.73;;;38.20;10.30;;;;;;4972682;28;20523;-69
2022/08/05 12:01:20;;;;;;;6.27;3.30;;;38.90;10.40;;;;;;4972938;28;20256;-69
2022/08/05 12:03:50;;;;;;;7.70;4.00;;;39.50;9.90;;;;;;4972756;28;20484;-69
2022/08/05 12:06:17;;;;;;;9.97;4.00;;;40.10;11.00;;;;;;4973086;28;20804;-69
2022/08/05 12:08:57;;;;;;;7.87;4.10;;;40.20;9.20;;;;;;4969529;28;20511;-69
2022/08/05 12:11:25;;;;;;;6.83;3.97;;;40.90;7.90;;;;;;4971830;28;20839;-70
2022/08/05 12:14:04;;;;;;;5.67;3.70;;;40.60;7.80;;;;;;4971898;28;20528;-69
2022/08/05 12:16:38;;;;;;;10.13;4.07;;;40.80;8.00;;;;;;4972501;28;20441;-69
2022/08/05 12:19:05;;;;;;;12.23;3.83;;;41.10;6.90;;;;;;4973434;28;20930;-69
2022/08/05 12:21:33;;;;;;;6.57;3.73;;;40.70;7.20;;;;;;4970839;28;20441;-69
2022/08/05 12:24:08;;;;;;;11.03;4.50;;;38.90;9.60;;;;;;4971879;28;21102;-69
2022/08/05 12:26:39;;;;;;;7.03;4.17;;;39.80;9.10;;;;;;4975651;28;20928;-70
2022/08/05 12:29:10;;;;;;;11.20;3.70;;;37.40;10.90;;;;;;4972164;28;20591;-69
2022/08/05 12:31:36;;;;;;;9.77;4.27;;;38.70;11.20;;;;;;4971966;28;20539;-69
2022/08/05 12:34:04;;;;;;;10.40;4.30;;;39.90;8.80;;;;;;4971711;28;20484;-69
2022/08/05 12:36:31;;;;;;;11.27;4.13;;;39.00;8.60;;;;;;4972856;28;20426;-68
2022/08/05 12:38:57;;;;;;;4.70;3.83;;;39.70;10.10;;;;;;4972513;28;20984;-70
2022/08/05 12:41:33;;;;;;;6.47;4.20;;;40.00;8.00;;;;;;4972662;28;20421;-69
2022/08/05 12:44:08;;;;;;;4.97;3.70;;;40.60;7.20;;;;;;4972199;28;20742;-70
2022/08/05 12:46:36;;;;;;;8.70;4.13;;;39.00;9.70;;;;;;4972590;28;20500;-68
2022/08/05 12:49:13;;;;;;;8.10;3.87;;;39.00;9.30;;;;;;4971747;28;20894;-69
2022/08/05 12:51:54;;;;;;;8.13;4.07;;;39.60;10.10;;;;;;4972150;28;20421;-70
2022/08/05 12:54:23;;;;;;;15.70;4.00;;;39.90;9.10;;;;;;4954737;28;20516;-70
2022/08/05 12:57:04;;;;;;;8.73;4.40;;;39.60;8.20;;;;;;4972200;28;20422;-70
2022/08/05 12:59:52;;;;;;;9.80;4.77;;;39.10;8.70;;;;;;4972429;28;20483;-69
2022/08/05 13:02:26;;;;;;;8.30;4.20;;;39.00;9.40;;;;;;4965465;28;20460;-69
2022/08/05 13:04:53;;;;;;;8.10;4.67;;;38.70;9.50;;;;;;4970172;28;20952;-69
2022/08/05 13:07:24;;;;;;;11.00;4.30;;;38.40;11.00;;;;;;4969794;28;20442;-70
2022/08/05 13:09:53;;;;;;;10.63;5.07;;;38.10;12.00;;;;;;4971931;28;20468;-69
2022/08/05 13:12:21;;;;;;;8.10;4.30;;;37.90;11.50;;;;;;4970428;28;20465;-69
2022/08/05 13:14:58;;;;;;;8.57;4.50;;;37.70;10.80;;;;;;4971740;28;20431;-69
2022/08/05 13:17:26;;;;;;;14.90;5.60;;;35.80;11.70;;;;;;4969578;28;20435;-70
2022/08/05 13:20:08;;;;;;;11.07;4.70;;;36.10;14.30;;;;;;4970390;28;20441;-71